Metar z połowy godziny Komunikat METAR ze strony awiacja.imgw.pl Metar G30 EPRZ METAR EPRZ 162230Z 09008KT 4500 BR NSC M03/M04 Q1019 R27/1///95 =